• images/banner/banner1.jpg
  • images/banner/banner2.jpg

Team Member Login

Aviation Weather

[source: ADDS]
METAR
EGVN 112150Z 12005KT 9999 FEW022 BKN150 06/05 Q1021 BLU NOSIG =
TAF EGVN 112218Z 1200/1224 15005KT 9999 BKN030 PROB30 1200/1209 4000 BR SCT020
TAF
TAF EGVN 112218Z 1200/1224 15005KT 9999 BKN030 PROB30 1200/1209 4000 BR SCT020 =